Time;durP1;ratioP1;P1;durP2;ratioP2;P2;SDS_P1;SDS_P2;PMS_P1;PMS_P2;Temp;Humidity;BMP_temperature;BMP_pressure;BME280_temperature;BME280_humidity;BME280_pressure;Samples;Min_cycle;Max_cycle;Signal;HPM_P1;HPM_P2
2022/10/22 00:02:06;;;;;;;190.33;179.83;;;14.20;99.90;;;;;;5034216;28;20198;-77
2022/10/22 00:04:32;;;;;;;186.17;176.07;;;14.20;99.90;;;;;;5033743;28;20183;-76
2022/10/22 00:06:58;;;;;;;184.70;174.47;;;14.10;99.90;;;;;;5016012;28;20206;-77
2022/10/22 00:09:24;;;;;;;129.70;122.67;;;14.10;99.90;;;;;;5016338;28;20190;-77
2022/10/22 00:11:50;;;;;;;185.03;175.00;;;14.10;99.90;;;;;;5015881;28;20179;-77
2022/10/22 00:14:16;;;;;;;180.43;170.70;;;14.10;99.90;;;;;;5033979;28;20179;-77
2022/10/22 00:16:43;;;;;;;142.47;134.97;;;14.00;99.90;;;;;;5033816;28;20749;-77
2022/10/22 00:19:09;;;;;;;167.30;158.30;;;14.00;99.90;;;;;;5033501;28;20187;-76
2022/10/22 00:21:35;;;;;;;165.83;156.70;;;14.00;99.90;;;;;;5016223;28;20179;-76
2022/10/22 00:24:01;;;;;;;121.83;115.40;;;14.00;99.90;;;;;;5016141;28;20185;-77
2022/10/22 00:26:27;;;;;;;92.17;87.30;;;14.00;99.90;;;;;;5033473;28;20741;-77
2022/10/22 00:28:53;;;;;;;92.93;87.20;;;14.00;99.90;;;;;;5017002;28;20290;-77
2022/10/22 00:31:19;;;;;;;86.23;81.47;;;14.00;99.90;;;;;;5020236;28;20206;-76
2022/10/22 00:33:46;;;;;;;116.27;109.77;;;13.90;99.90;;;;;;5034325;28;20189;-77
2022/10/22 00:36:13;;;;;;;109.43;103.63;;;14.00;99.90;;;;;;5016142;28;20210;-77
2022/10/22 00:38:39;;;;;;;65.97;62.37;;;13.90;99.90;;;;;;5015751;28;20218;-76
2022/10/22 00:41:06;;;;;;;64.57;61.17;;;13.90;99.90;;;;;;5009239;28;20219;-77
2022/10/22 00:43:33;;;;;;;95.97;90.87;;;13.80;99.90;;;;;;5031613;28;20558;-77
2022/10/22 00:45:58;;;;;;;70.40;66.00;;;13.90;99.90;;;;;;5033469;28;20234;-77
2022/10/22 00:48:25;;;;;;;76.70;72.20;;;13.90;99.90;;;;;;5033275;28;20218;-76
2022/10/22 00:50:55;;;;;;;134.23;127.07;;;13.80;99.90;;;;;;5033047;28;20289;-78
2022/10/22 00:53:30;;;;;;;150.37;142.33;;;13.80;99.90;;;;;;5015627;28;20541;-78
2022/10/22 00:55:56;;;;;;;127.93;121.33;;;13.80;99.90;;;;;;5032708;28;20257;-77
2022/10/22 00:58:28;;;;;;;111.20;105.57;;;13.80;99.90;;;;;;5032723;28;20178;-77
2022/10/22 01:00:55;;;;;;;98.70;93.33;;;13.70;99.90;;;;;;5033348;28;20206;-77
2022/10/22 01:03:21;;;;;;;95.53;90.40;;;13.70;99.90;;;;;;5033428;28;20274;-77
2022/10/22 01:05:58;;;;;;;64.57;61.10;;;13.60;99.90;;;;;;5016289;28;20210;-78
2022/10/22 01:09:04;;;;;;;56.30;53.17;;;13.60;99.90;;;;;;5032584;28;20186;-76
2022/10/22 01:12:00;;;;;;;73.30;69.07;;;13.60;99.90;;;;;;5014366;28;20297;-75
2022/10/22 01:14:41;;;;;;;122.83;116.43;;;13.60;99.90;;;;;;5008361;28;20354;-76
2022/10/22 01:17:19;;;;;;;156.93;148.67;;;13.60;99.90;;;;;;5014766;28;20285;-76
2022/10/22 01:20:00;;;;;;;40.87;38.67;;;13.60;99.90;;;;;;5032785;28;20195;-77
2022/10/22 01:22:37;;;;;;;10.20;9.30;;;13.60;99.90;;;;;;5015095;28;20199;-76
2022/10/22 01:25:29;;;;;;;13.73;12.77;;;13.50;99.90;;;;;;5012692;28;20183;-75
2022/10/22 01:28:14;;;;;;;16.87;15.80;;;13.50;99.90;;;;;;4994845;28;20241;-76
2022/10/22 01:30:42;;;;;;;6.87;6.23;;;13.50;99.90;;;;;;5012620;28;20212;-76
2022/10/22 01:33:11;;;;;;;9.40;5.53;;;13.50;99.90;;;;;;4995030;28;20226;-76
2022/10/22 01:35:40;;;;;;;6.83;6.33;;;13.50;99.90;;;;;;4995977;28;20269;-76
2022/10/22 01:38:11;;;;;;;6.97;6.27;;;13.50;99.90;;;;;;5006619;28;20178;-76
2022/10/22 01:40:38;;;;;;;10.27;7.47;;;13.50;99.90;;;;;;5015286;28;20183;-76
2022/10/22 01:43:08;;;;;;;18.17;16.87;;;13.40;99.90;;;;;;5032216;28;20445;-77
2022/10/22 01:45:42;;;;;;;20.47;19.27;;;13.50;99.90;;;;;;5014474;28;20207;-76
2022/10/22 01:48:24;;;;;;;41.63;39.53;;;13.40;99.90;;;;;;5031804;28;20344;-76
2022/10/22 01:51:32;;;;;;;37.43;35.33;;;13.40;99.90;;;;;;5032199;28;20217;-77
2022/10/22 01:54:18;;;;;;;55.60;52.63;;;13.40;99.90;;;;;;4984970;28;20191;-76
2022/10/22 01:57:02;;;;;;;142.57;134.97;;;13.40;99.90;;;;;;5013868;28;20255;-77
2022/10/22 01:59:37;;;;;;;160.37;152.00;;;13.40;99.90;;;;;;5014506;28;20179;-76
2022/10/22 02:02:09;;;;;;;181.87;172.53;;;13.40;99.90;;;;;;5014480;28;20184;-77
2022/10/22 02:04:37;;;;;;;155.60;147.33;;;13.40;99.90;;;;;;5015545;28;20653;-77
2022/10/22 02:07:06;;;;;;;142.93;135.43;;;13.40;99.90;;;;;;5033528;28;20563;-77
2022/10/22 02:09:34;;;;;;;186.17;176.63;;;13.30;99.90;;;;;;5031668;28;20229;-77
2022/10/22 02:12:02;;;;;;;127.77;121.27;;;13.30;99.90;;;;;;5014890;28;20179;-79
2022/10/22 02:14:29;;;;;;;70.90;67.33;;;13.30;99.90;;;;;;5014235;28;20555;-77
2022/10/22 02:16:57;;;;;;;108.37;102.73;;;13.30;99.90;;;;;;5031286;28;20676;-77
2022/10/22 02:19:53;;;;;;;136.33;129.17;;;13.20;99.90;;;;;;5031573;28;20176;-77
2022/10/22 02:22:20;;;;;;;191.47;181.10;;;13.20;99.90;;;;;;5013497;28;20183;-77
2022/10/22 02:24:47;;;;;;;151.53;143.37;;;13.20;99.90;;;;;;5013955;28;20274;-78
2022/10/22 02:27:28;;;;;;;102.63;97.50;;;13.20;99.90;;;;;;5031218;28;20281;-77
2022/10/22 02:30:01;;;;;;;69.00;65.20;;;13.20;99.90;;;;;;5031510;28;20297;-77
2022/10/22 02:32:38;;;;;;;126.07;119.50;;;13.20;99.90;;;;;;5013632;28;20182;-77
2022/10/22 02:35:06;;;;;;;111.37;105.37;;;13.20;99.90;;;;;;5031139;28;20232;-78
2022/10/22 02:37:32;;;;;;;100.97;95.63;;;13.20;99.90;;;;;;5031276;28;20252;-77
2022/10/22 02:39:58;;;;;;;55.40;52.40;;;13.10;99.90;;;;;;5031809;28;20187;-77
2022/10/22 02:42:27;;;;;;;55.17;52.23;;;13.10;99.90;;;;;;5032218;28;20179;-77
2022/10/22 02:44:52;;;;;;;193.73;183.67;;;13.00;99.90;;;;;;5018662;28;20187;-77
2022/10/22 02:47:18;;;;;;;132.10;125.37;;;13.00;99.90;;;;;;5032088;28;20777;-77
2022/10/22 02:49:44;;;;;;;70.07;66.37;;;13.00;99.90;;;;;;5030938;28;20221;-77
2022/10/22 02:52:10;;;;;;;17.73;16.77;;;13.00;99.90;;;;;;5013308;28;20648;-77
2022/10/22 02:54:36;;;;;;;10.20;9.70;;;13.00;99.90;;;;;;5014539;28;20183;-77
2022/10/22 02:57:02;;;;;;;8.43;7.93;;;13.00;99.90;;;;;;5013277;28;20256;-77
2022/10/22 02:59:27;;;;;;;8.20;7.43;;;13.00;99.90;;;;;;5013652;28;20650;-77
2022/10/22 03:01:53;;;;;;;5.83;5.37;;;13.00;99.90;;;;;;5030992;28;20264;-77
2022/10/22 03:04:19;;;;;;;5.33;5.03;;;13.00;99.90;;;;;;5013487;28;20211;-77
2022/10/22 03:06:47;;;;;;;5.03;4.80;;;12.90;99.90;;;;;;5013533;28;20799;-77
2022/10/22 03:09:13;;;;;;;5.10;4.63;;;12.90;99.90;;;;;;5013663;28;20179;-77
2022/10/22 03:11:39;;;;;;;5.23;5.03;;;13.00;99.90;;;;;;5013381;28;20697;-78
2022/10/22 03:14:04;;;;;;;10.77;10.27;;;12.90;99.90;;;;;;5014030;28;20678;-77
2022/10/22 03:16:30;;;;;;;6.00;5.50;;;12.90;99.90;;;;;;5013898;28;20281;-77
2022/10/22 03:18:56;;;;;;;47.03;44.27;;;12.90;99.90;;;;;;5013199;28;20187;-78
2022/10/22 03:21:43;;;;;;;18.67;17.80;;;12.90;99.90;;;;;;5030809;28;20179;-77
2022/10/22 03:24:13;;;;;;;138.07;131.20;;;12.90;99.90;;;;;;5003978;28;20293;-77
2022/10/22 03:26:41;;;;;;;59.23;56.30;;;12.90;99.90;;;;;;5032271;28;20207;-77
2022/10/22 03:29:08;;;;;;;20.97;19.97;;;12.90;99.90;;;;;;5031682;28;20551;-77
2022/10/22 03:31:34;;;;;;;13.53;12.57;;;12.90;99.90;;;;;;5010447;28;20272;-77
2022/10/22 03:34:00;;;;;;;62.17;58.63;;;13.00;99.90;;;;;;5016342;28;20622;-77
2022/10/22 03:36:26;;;;;;;253.23;240.00;;;12.90;99.90;;;;;;5017882;28;20860;-77
2022/10/22 03:38:51;;;;;;;211.07;200.17;;;12.90;99.90;;;;;;5018795;28;20183;-76
2022/10/22 03:41:17;;;;;;;111.63;106.00;;;13.00;99.90;;;;;;5039730;28;20247;-77
2022/10/22 03:43:48;;;;;;;36.67;34.43;;;13.00;99.90;;;;;;5017633;28;20716;-78
2022/10/22 03:46:14;;;;;;;11.90;11.40;;;13.00;99.90;;;;;;5035714;28;20203;-77
2022/10/22 03:48:40;;;;;;;50.20;47.63;;;13.00;99.90;;;;;;5037952;28;20183;-76
2022/10/22 03:51:06;;;;;;;13.13;12.40;;;12.90;99.90;;;;;;5041507;28;20230;-76
2022/10/22 03:53:31;;;;;;;9.53;9.03;;;12.90;99.90;;;;;;5037528;28;20183;-77
2022/10/22 03:55:57;;;;;;;112.17;106.37;;;12.90;99.90;;;;;;5018852;28;20738;-78
2022/10/22 03:58:23;;;;;;;189.43;179.83;;;12.90;99.90;;;;;;5036678;28;20206;-78
2022/10/22 04:00:49;;;;;;;148.20;140.83;;;12.90;99.90;;;;;;5036032;28;20209;-77
2022/10/22 04:03:14;;;;;;;78.87;74.87;;;12.90;99.90;;;;;;5017661;28;20206;-77
2022/10/22 04:05:41;;;;;;;27.00;25.50;;;13.00;99.90;;;;;;5018219;28;20208;-77
2022/10/22 04:08:07;;;;;;;9.33;8.87;;;12.90;99.90;;;;;;5018839;28;20565;-77
2022/10/22 04:10:34;;;;;;;8.60;8.07;;;12.90;99.90;;;;;;5036724;28;20207;-77
2022/10/22 04:13:00;;;;;;;7.20;6.70;;;12.90;99.90;;;;;;5018900;28;20175;-78
2022/10/22 04:15:27;;;;;;;5.73;5.47;;;13.00;99.90;;;;;;5036529;28;20214;-78
2022/10/22 04:17:54;;;;;;;11.77;11.20;;;13.00;99.90;;;;;;5019329;28;20186;-77
2022/10/22 04:20:20;;;;;;;51.20;48.50;;;13.00;99.90;;;;;;5036903;28;20179;-78
2022/10/22 04:22:45;;;;;;;125.03;118.73;;;13.00;99.90;;;;;;5036474;28;20179;-78
2022/10/22 04:25:11;;;;;;;204.20;193.40;;;13.00;99.90;;;;;;5036815;28;20258;-77
2022/10/22 04:27:37;;;;;;;236.63;224.30;;;13.00;99.90;;;;;;5018523;28;20214;-77
2022/10/22 04:30:05;;;;;;;60.40;57.33;;;12.90;99.90;;;;;;5036914;28;20214;-77
2022/10/22 04:32:31;;;;;;;9.20;8.43;;;12.90;99.90;;;;;;5018531;28;20183;-78
2022/10/22 04:34:57;;;;;;;9.10;8.27;;;12.80;99.90;;;;;;5036096;28;20178;-78
2022/10/22 04:37:22;;;;;;;7.47;7.17;;;12.90;99.90;;;;;;5017973;28;20214;-78
2022/10/22 04:39:48;;;;;;;8.33;7.83;;;12.90;99.90;;;;;;5018112;28;20194;-77
2022/10/22 04:42:14;;;;;;;48.30;45.77;;;12.80;99.90;;;;;;5022317;28;20277;-77
2022/10/22 04:44:40;;;;;;;76.47;72.53;;;12.80;99.90;;;;;;5017397;28;20184;-77
2022/10/22 04:47:05;;;;;;;91.40;86.20;;;12.80;99.90;;;;;;5034346;28;20202;-77
2022/10/22 04:49:31;;;;;;;79.80;75.43;;;12.70;99.90;;;;;;5034636;28;20265;-77
2022/10/22 04:51:57;;;;;;;62.57;59.37;;;12.70;99.90;;;;;;5027485;28;20662;-78
2022/10/22 04:54:23;;;;;;;79.17;75.10;;;12.70;99.90;;;;;;5017405;28;20182;-76
2022/10/22 04:56:48;;;;;;;76.83;72.43;;;12.70;99.90;;;;;;5023811;28;20201;-77
2022/10/22 04:59:14;;;;;;;120.60;114.27;;;12.70;99.90;;;;;;5030561;28;20230;-78
2022/10/22 05:01:42;;;;;;;130.23;122.97;;;12.60;99.90;;;;;;5018252;28;20191;-78
2022/10/22 05:04:11;;;;;;;113.83;107.83;;;12.50;99.90;;;;;;5023641;28;20315;-77
2022/10/22 05:06:37;;;;;;;116.40;110.47;;;12.50;99.90;;;;;;5041256;28;20605;-77
2022/10/22 05:09:07;;;;;;;147.17;139.23;;;12.40;99.90;;;;;;5023138;28;20274;-77
2022/10/22 05:11:40;;;;;;;157.17;148.50;;;12.40;99.90;;;;;;5026219;28;20230;-78
2022/10/22 05:14:08;;;;;;;19.77;18.43;;;12.40;99.90;;;;;;5028165;28;20557;-78
2022/10/22 05:16:34;;;;;;;7.67;5.03;;;12.40;99.90;;;;;;5028450;28;20210;-79
2022/10/22 05:19:01;;;;;;;5.40;5.17;;;12.30;99.90;;;;;;5018358;28;20222;-78
2022/10/22 05:21:27;;;;;;;16.10;15.20;;;12.40;99.90;;;;;;5019060;28;20248;-78
2022/10/22 05:23:54;;;;;;;41.57;39.53;;;12.30;99.90;;;;;;5034648;28;20608;-79
2022/10/22 05:26:22;;;;;;;92.90;88.07;;;12.30;99.90;;;;;;5018761;28;20210;-77
2022/10/22 05:28:49;;;;;;;120.67;114.43;;;12.30;99.90;;;;;;5015383;28;20189;-77
2022/10/22 05:31:16;;;;;;;163.23;154.23;;;12.20;99.90;;;;;;5014906;28;20705;-77
2022/10/22 05:33:42;;;;;;;161.63;153.47;;;12.20;99.90;;;;;;5033809;28;20266;-77
2022/10/22 05:36:15;;;;;;;79.67;75.77;;;12.20;99.90;;;;;;5033513;28;20206;-78
2022/10/22 05:38:40;;;;;;;29.93;27.93;;;12.20;99.90;;;;;;5031965;28;20187;-71
2022/10/22 05:41:16;;;;;;;11.27;10.60;;;12.20;99.90;;;;;;5031971;28;20182;-71
2022/10/22 05:43:42;;;;;;;6.23;5.80;;;12.20;99.90;;;;;;5031854;28;20191;-70
2022/10/22 05:46:17;;;;;;;4.60;4.40;;;12.30;99.90;;;;;;5031479;28;20240;-71
2022/10/22 05:48:43;;;;;;;18.07;16.90;;;12.30;99.90;;;;;;5014308;28;20182;-71
2022/10/22 05:51:12;;;;;;;18.63;17.73;;;12.30;99.90;;;;;;5013680;28;20260;-70
2022/10/22 05:53:40;;;;;;;22.83;21.00;;;12.30;99.90;;;;;;5031955;28;20735;-71
2022/10/22 05:56:10;;;;;;;23.33;22.00;;;12.30;99.90;;;;;;5031298;28;20260;-71
2022/10/22 05:58:36;;;;;;;20.43;19.40;;;12.30;99.90;;;;;;5013480;28;20194;-70
2022/10/22 06:01:04;;;;;;;25.60;24.20;;;12.40;99.90;;;;;;5013720;28;20194;-70
2022/10/22 06:03:31;;;;;;;29.57;27.37;;;12.30;99.90;;;;;;5029729;28;20244;-73
2022/10/22 06:06:00;;;;;;;20.87;19.60;;;12.40;99.90;;;;;;5015087;28;20206;-71
2022/10/22 06:08:27;;;;;;;17.27;16.33;;;12.40;99.90;;;;;;5031211;28;20185;-72
2022/10/22 06:10:53;;;;;;;10.03;7.40;;;12.40;99.90;;;;;;5028124;28;20206;-71
2022/10/22 06:13:19;;;;;;;7.03;6.33;;;12.40;99.90;;;;;;5051218;28;20277;-68
2022/10/22 06:15:44;;;;;;;13.77;13.07;;;12.40;99.90;;;;;;5051114;28;20293;-67
2022/10/22 06:18:11;;;;;;;27.10;25.67;;;12.40;99.90;;;;;;5033457;28;20188;-68
2022/10/22 06:20:36;;;;;;;36.37;33.87;;;12.40;99.90;;;;;;5050849;28;20550;-68
2022/10/22 06:23:02;;;;;;;10.37;9.43;;;12.50;99.90;;;;;;5013914;28;20191;-72
2022/10/22 06:25:28;;;;;;;7.20;6.50;;;12.50;99.90;;;;;;5031299;28;20210;-71
2022/10/22 06:27:54;;;;;;;8.83;6.10;;;12.60;99.90;;;;;;5030775;28;20191;-72
2022/10/22 06:30:19;;;;;;;18.57;17.43;;;12.60;99.90;;;;;;5030957;28;20750;-70
2022/10/22 06:32:45;;;;;;;110.10;104.33;;;12.60;99.90;;;;;;5013469;28;20236;-72
2022/10/22 06:35:11;;;;;;;95.23;90.50;;;12.70;99.90;;;;;;5030845;28;20644;-70
2022/10/22 06:37:37;;;;;;;172.17;162.97;;;12.70;99.90;;;;;;5031209;28;20240;-70
2022/10/22 06:40:02;;;;;;;191.07;180.93;;;12.70;99.90;;;;;;5013381;28;20682;-71
2022/10/22 06:42:28;;;;;;;126.77;119.40;;;12.70;99.90;;;;;;5029884;28;20187;-71
2022/10/22 06:44:54;;;;;;;23.87;22.17;;;12.80;99.90;;;;;;5013024;28;20277;-72
2022/10/22 06:47:20;;;;;;;8.87;8.47;;;12.80;99.90;;;;;;5044866;28;20585;-72
2022/10/22 06:49:47;;;;;;;12.60;11.90;;;12.80;99.90;;;;;;5036027;28;20262;-72
2022/10/22 06:52:13;;;;;;;9.23;8.67;;;12.90;99.90;;;;;;5031172;28;20183;-72
2022/10/22 06:54:39;;;;;;;8.37;7.80;;;12.90;99.90;;;;;;5031107;28;20643;-74
2022/10/22 06:57:05;;;;;;;9.57;8.67;;;12.90;99.90;;;;;;5029971;28;20527;-71
2022/10/22 06:59:30;;;;;;;12.37;11.23;;;12.90;99.90;;;;;;5030908;28;20550;-72
2022/10/22 07:01:56;;;;;;;15.67;14.67;;;12.90;99.90;;;;;;5031136;28;20187;-71
2022/10/22 07:04:22;;;;;;;12.43;11.67;;;12.90;99.90;;;;;;5031053;28;20187;-72
2022/10/22 07:06:48;;;;;;;15.57;14.03;;;12.90;99.90;;;;;;5030094;28;20292;-71
2022/10/22 07:09:14;;;;;;;17.77;16.80;;;13.00;99.90;;;;;;5029983;28;20186;-72
2022/10/22 07:11:42;;;;;;;18.53;17.30;;;13.10;99.90;;;;;;5012980;28;20222;-66
2022/10/22 07:14:07;;;;;;;19.13;16.87;;;13.20;99.90;;;;;;5031005;28;20179;-68
2022/10/22 07:16:33;;;;;;;47.60;44.80;;;13.30;99.90;;;;;;5030830;28;20195;-69
2022/10/22 07:19:00;;;;;;;73.77;69.57;;;13.40;99.90;;;;;;5012896;28;20171;-69
2022/10/22 07:21:26;;;;;;;197.13;186.60;;;13.40;99.90;;;;;;5030844;28;20573;-72
2022/10/22 07:23:52;;;;;;;122.70;116.17;;;13.50;99.90;;;;;;5012744;28;20192;-74
2022/10/22 07:26:21;;;;;;;152.80;144.27;;;13.60;99.90;;;;;;5030632;28;20210;-73
2022/10/22 07:28:47;;;;;;;80.20;75.87;;;13.60;99.90;;;;;;5030435;28;20191;-72
2022/10/22 07:31:14;;;;;;;41.40;39.20;;;13.70;99.90;;;;;;5013282;28;20241;-72
2022/10/22 07:33:40;;;;;;;16.33;15.27;;;13.70;99.90;;;;;;5013227;28;20706;-72
2022/10/22 07:36:09;;;;;;;15.37;14.40;;;13.70;99.90;;;;;;5030814;28;20206;-72
2022/10/22 07:38:35;;;;;;;11.90;10.93;;;13.70;99.90;;;;;;5030060;28;20187;-73
2022/10/22 07:41:01;;;;;;;6.57;6.17;;;13.70;99.90;;;;;;5030291;28;20569;-72
2022/10/22 07:43:27;;;;;;;7.33;6.77;;;13.70;99.90;;;;;;5013669;28;20179;-72
2022/10/22 07:45:54;;;;;;;9.73;8.83;;;13.70;99.90;;;;;;5030730;28;20207;-72
2022/10/22 07:48:21;;;;;;;7.83;7.30;;;13.80;99.90;;;;;;5030336;28;20229;-72
2022/10/22 07:50:51;;;;;;;8.50;7.30;;;13.80;99.90;;;;;;5030629;28;20222;-72
2022/10/22 07:53:17;;;;;;;8.57;7.43;;;13.80;99.90;;;;;;5013103;28;20736;-73
2022/10/22 07:55:43;;;;;;;35.10;32.63;;;13.90;99.90;;;;;;5030350;28;20195;-72
2022/10/22 07:58:09;;;;;;;47.30;44.57;;;14.00;99.90;;;;;;5030178;28;20229;-72
2022/10/22 08:00:34;;;;;;;101.27;95.50;;;14.10;99.90;;;;;;5012945;28;20678;-72
2022/10/22 08:03:00;;;;;;;121.70;115.23;;;14.20;99.90;;;;;;5030501;28;20286;-72
2022/10/22 08:05:26;;;;;;;121.60;114.67;;;14.40;99.90;;;;;;5012656;28;20210;-71
2022/10/22 08:07:52;;;;;;;157.17;148.43;;;14.70;99.90;;;;;;5012517;28;20183;-71
2022/10/22 08:10:17;;;;;;;10.77;9.90;;;14.80;99.90;;;;;;5012927;28;20217;-72
2022/10/22 08:12:43;;;;;;;13.10;11.77;;;15.00;99.90;;;;;;5030471;28;20258;-72
2022/10/22 08:15:09;;;;;;;12.13;11.23;;;15.10;99.90;;;;;;5030213;28;20180;-72
2022/10/22 08:17:35;;;;;;;34.43;32.03;;;15.20;99.90;;;;;;5011689;28;20694;-72
2022/10/22 08:20:01;;;;;;;53.80;50.90;;;15.30;99.90;;;;;;5030887;28;20187;-72
2022/10/22 08:22:27;;;;;;;68.57;64.77;;;15.30;99.90;;;;;;5033563;28;20183;-72
2022/10/22 08:24:52;;;;;;;87.40;82.60;;;15.50;99.90;;;;;;5016030;28;20183;-72
2022/10/22 08:27:18;;;;;;;81.10;76.70;;;15.80;99.90;;;;;;5033668;28;20626;-71
2022/10/22 08:29:44;;;;;;;39.63;37.23;;;16.10;99.90;;;;;;5002858;28;20199;-72
2022/10/22 08:32:10;;;;;;;29.47;27.83;;;16.40;99.90;;;;;;5015246;28;20187;-71
2022/10/22 08:34:35;;;;;;;15.97;15.27;;;16.50;99.90;;;;;;5025840;28;20181;-72
2022/10/22 08:37:01;;;;;;;12.80;11.87;;;16.40;99.90;;;;;;5032954;28;20219;-71
2022/10/22 08:39:27;;;;;;;8.43;7.93;;;16.30;99.90;;;;;;5015885;28;20179;-76
2022/10/22 08:42:18;;;;;;;11.20;10.47;;;16.10;99.90;;;;;;5033639;28;20187;-75
2022/10/22 08:44:53;;;;;;;8.40;7.90;;;16.00;99.90;;;;;;5015764;28;20205;-77
2022/10/22 08:47:27;;;;;;;41.00;38.60;;;15.90;99.90;;;;;;5033415;28;20206;-72
2022/10/22 08:49:55;;;;;;;62.33;59.07;;;16.30;99.90;;;;;;5033226;28;20190;-75
2022/10/22 08:52:21;;;;;;;24.53;23.33;;;17.00;99.90;;;;;;5032965;28;20175;-73
2022/10/22 08:54:57;;;;;;;25.60;24.13;;;17.80;99.90;;;;;;5015319;28;20449;-75
2022/10/22 08:57:50;;;;;;;14.73;13.83;;;18.60;99.90;;;;;;5015505;28;20202;-75
2022/10/22 09:00:36;;;;;;;16.80;15.93;;;19.00;99.90;;;;;;5032130;28;20193;-70
2022/10/22 09:03:07;;;;;;;21.57;20.43;;;19.70;99.90;;;;;;5033471;28;20252;-69
2022/10/22 09:06:02;;;;;;;22.07;20.80;;;20.20;99.90;;;;;;5032213;28;20203;-70
2022/10/22 09:08:28;;;;;;;25.53;24.30;;;20.40;99.90;;;;;;5024597;28;20743;-69
2022/10/22 09:11:18;;;;;;;22.73;21.47;;;20.80;99.90;;;;;;5033101;28;20218;-68
2022/10/22 09:13:45;;;;;;;9.53;7.63;;;21.40;99.90;;;;;;5032319;28;20233;-68
2022/10/22 09:16:16;;;;;;;6.37;5.93;;;21.60;99.90;;;;;;5015320;28;20195;-67
2022/10/22 09:18:45;;;;;;;4.93;4.63;;;22.30;99.90;;;;;;5032406;28;20175;-67
2022/10/22 09:21:24;;;;;;;5.63;5.33;;;22.40;99.90;;;;;;5032712;28;20183;-67
2022/10/22 09:24:12;;;;;;;13.53;12.43;;;22.40;99.90;;;;;;5032542;28;20186;-67
2022/10/22 09:26:40;;;;;;;23.45;22.15;;;22.90;99.90;;;;;;5032630;28;20257;-68
2022/10/22 09:29:12;;;;;;;23.63;22.33;;;22.80;99.90;;;;;;5014412;28;20186;-68
2022/10/22 09:31:38;;;;;;;32.87;31.07;;;23.00;99.90;;;;;;5031928;28;20206;-68
2022/10/22 09:34:06;;;;;;;30.48;28.65;;;23.00;99.90;;;;;;5032097;28;20179;-68
2022/10/22 09:36:33;;;;;;;22.00;21.00;;;22.90;99.90;;;;;;5031958;28;20217;-68
2022/10/22 09:38:59;;;;;;;29.73;28.23;;;23.40;99.90;;;;;;5032384;28;20189;-72
2022/10/22 09:41:31;;;;;;;21.08;20.08;;;23.30;99.90;;;;;;5033114;28;20274;-73
2022/10/22 09:43:58;;;;;;;22.17;21.15;;;23.60;99.90;;;;;;5014992;28;20198;-72
2022/10/22 09:46:28;;;;;;;19.75;18.60;;;23.60;99.90;;;;;;5032446;28;20199;-72
2022/10/22 09:49:03;;;;;;;7.85;7.25;;;24.10;99.90;;;;;;5031764;28;20620;-71
2022/10/22 09:51:49;;;;;;;11.27;10.60;;;24.40;99.90;;;;;;5032193;28;20272;-72
2022/10/22 09:54:19;;;;;;;8.35;7.65;;;24.30;99.90;;;;;;5032376;28;20179;-72
2022/10/22 09:56:56;;;;;;;11.25;10.45;;;24.70;99.90;;;;;;5032131;28;20688;-72
2022/10/22 09:59:32;;;;;;;21.20;19.83;;;24.80;99.90;;;;;;5032799;28;20648;-74
2022/10/22 10:02:10;;;;;;;16.52;15.55;;;24.60;99.90;;;;;;5032616;28;20183;-72
2022/10/22 10:04:50;;;;;;;18.55;17.70;;;25.00;99.90;;;;;;5030987;28;20565;-72
2022/10/22 10:07:22;;;;;;;5.13;4.82;;;25.40;99.90;;;;;;5031993;28;20606;-73
2022/10/22 10:09:48;;;;;;;11.98;11.35;;;25.10;99.90;;;;;;5032244;28;20618;-73
2022/10/22 10:12:31;;;;;;;4.10;3.90;;;25.10;99.90;;;;;;5032175;28;20211;-72
2022/10/22 10:15:05;;;;;;;4.25;3.90;;;25.20;99.90;;;;;;5031921;28;20599;-73
2022/10/22 10:17:48;;;;;;;3.70;3.47;;;24.70;99.90;;;;;;5031820;28;20185;-73
2022/10/22 10:20:22;;;;;;;3.28;3.17;;;24.60;99.90;;;;;;5032164;28;20278;-73
2022/10/22 10:22:54;;;;;;;5.50;5.28;;;24.50;99.90;;;;;;5014391;28;20282;-73
2022/10/22 10:25:49;;;;;;;5.20;4.95;;;24.50;99.90;;;;;;5031656;28;20195;-73
2022/10/22 10:28:30;;;;;;;6.78;6.25;;;25.10;99.90;;;;;;5031559;28;20561;-72
2022/10/22 10:31:16;;;;;;;3.80;3.55;;;25.30;99.90;;;;;;5031907;28;20210;-73
2022/10/22 10:34:27;;;;;;;3.63;3.08;;;25.50;99.90;;;;;;5031852;28;20580;-73
2022/10/22 10:37:18;;;;;;;3.60;3.42;;;25.90;99.90;;;;;;4915990;29;20632;-73
2022/10/22 10:40:04;;;;;;;5.65;4.00;;;26.20;99.90;;;;;;5028253;28;20290;-72
2022/10/22 10:42:39;;;;;;;4.72;4.35;;;26.10;99.90;;;;;;5031650;28;20690;-73
2022/10/22 10:45:38;;;;;;;3.75;3.53;;;26.20;99.90;;;;;;5030830;28;20329;-73
2022/10/22 10:48:07;;;;;;;3.70;3.40;;;26.00;99.90;;;;;;5011374;28;20188;-73
2022/10/22 10:50:46;;;;;;;3.90;3.78;;;25.60;99.90;;;;;;5011660;28;20212;-73
2022/10/22 10:53:45;;;;;;;3.70;3.40;;;25.60;99.90;;;;;;5011673;28;20183;-73
2022/10/22 10:56:21;;;;;;;4.63;3.05;;;25.80;99.90;;;;;;5011739;28;20269;-73
2022/10/22 10:59:17;;;;;;;3.17;3.08;;;26.30;99.90;;;;;;5011171;28;20234;-73
2022/10/22 11:02:13;;;;;;;4.45;4.18;;;26.40;99.90;;;;;;5011555;28;20573;-73
2022/10/22 11:05:02;;;;;;;4.65;4.50;;;26.50;99.90;;;;;;5020810;28;20190;-73
2022/10/22 11:07:34;;;;;;;5.20;4.47;;;27.10;99.90;;;;;;5013342;28;20211;-73
2022/10/22 11:10:19;;;;;;;4.18;3.83;;;27.10;99.90;;;;;;5031850;28;20314;-73
2022/10/22 11:12:50;;;;;;;6.28;5.97;;;27.50;99.90;;;;;;5031276;28;20187;-73
2022/10/22 11:15:21;;;;;;;6.32;5.93;;;28.10;99.90;;;;;;5030872;28;20183;-73
2022/10/22 11:17:48;;;;;;;5.63;5.32;;;28.20;99.90;;;;;;5013082;28;20175;-73
2022/10/22 11:20:31;;;;;;;6.63;6.03;;;27.50;99.90;;;;;;5031176;28;20405;-74
2022/10/22 11:23:20;;;;;;;6.95;6.55;;;26.90;99.90;;;;;;5013481;28;20179;-73
2022/10/22 11:25:48;;;;;;;9.77;9.02;;;24.40;99.90;;;;;;5013173;28;20562;-75
2022/10/22 11:28:22;;;;;;;4.80;4.50;;;23.10;99.90;;;;;;5031551;28;20183;-74
2022/10/22 11:31:01;;;;;;;5.22;4.90;;;23.10;99.90;;;;;;5031909;28;20217;-73
2022/10/22 11:33:38;;;;;;;5.97;5.78;;;23.40;99.90;;;;;;5031473;28;20187;-74
2022/10/22 11:36:06;;;;;;;4.97;4.57;;;25.30;99.90;;;;;;5013644;28;20210;-76
2022/10/22 11:38:34;;;;;;;7.10;6.45;;;26.40;99.90;;;;;;5030662;28;20175;-73
2022/10/22 11:41:05;;;;;;;8.63;7.97;;;27.10;99.90;;;;;;5030824;28;20179;-71
2022/10/22 11:44:16;;;;;;;4.75;4.55;;;27.90;99.90;;;;;;5013189;28;20275;-73
2022/10/22 11:46:44;;;;;;;7.07;6.30;;;27.60;99.90;;;;;;4991405;28;20216;-70
2022/10/22 11:49:13;;;;;;;4.07;3.83;;;26.90;99.90;;;;;;5011049;28;20557;-72
2022/10/22 11:51:41;;;;;;;4.55;4.35;;;27.20;99.90;;;;;;5010848;28;20214;-72
2022/10/22 11:54:36;;;;;;;5.38;5.18;;;27.80;99.90;;;;;;4998241;28;20258;-72
2022/10/22 11:57:13;;;;;;;3.92;3.72;;;28.00;99.90;;;;;;5034156;28;20210;-72
2022/10/22 12:00:00;;;;;;;4.30;3.90;;;28.00;99.90;;;;;;5034519;28;20273;-72
2022/10/22 12:02:39;;;;;;;11.23;6.80;;;28.20;99.90;;;;;;5034349;28;20198;-72
2022/10/22 12:05:24;;;;;;;5.32;4.18;;;28.30;99.20;;;;;;5016222;28;20241;-72
2022/10/22 12:08:00;;;;;;;5.28;4.90;;;29.40;98.50;;;;;;5016042;28;20182;-72
2022/10/22 12:10:32;;;;;;;5.18;4.85;;;29.30;96.80;;;;;;5016685;28;20722;-72
2022/10/22 12:13:16;;;;;;;4.30;4.15;;;28.60;97.70;;;;;;5034273;28;20548;-72
2022/10/22 12:15:47;;;;;;;3.97;3.67;;;27.80;98.50;;;;;;5033981;28;20210;-75
2022/10/22 12:18:14;;;;;;;7.72;3.88;;;28.40;97.80;;;;;;5034001;28;20269;-72
2022/10/22 12:20:39;;;;;;;4.63;4.22;;;28.40;96.50;;;;;;5034223;28;20527;-72
2022/10/22 12:23:10;;;;;;;4.97;4.60;;;29.30;95.20;;;;;;5016515;28;20190;-72
2022/10/22 12:25:36;;;;;;;5.15;4.95;;;29.30;94.80;;;;;;5033861;28;20207;-72
2022/10/22 12:28:03;;;;;;;6.43;5.97;;;29.40;93.80;;;;;;5016034;28;20270;-72
2022/10/22 12:30:33;;;;;;;5.13;4.90;;;29.80;94.10;;;;;;5034005;28;20576;-72
2022/10/22 12:33:01;;;;;;;4.32;4.13;;;30.10;93.70;;;;;;5033997;28;20186;-73
2022/10/22 12:35:29;;;;;;;25.35;23.77;;;31.20;92.20;;;;;;5015751;28;20217;-73
2022/10/22 12:38:11;;;;;;;48.65;46.38;;;32.50;86.60;;;;;;5033460;28;20237;-73
2022/10/22 12:40:40;;;;;;;40.97;39.03;;;32.50;82.90;;;;;;5016061;28;20759;-73
2022/10/22 12:43:17;;;;;;;34.10;32.25;;;32.10;82.70;;;;;;5033660;28;20613;-74
2022/10/22 12:45:46;;;;;;;48.53;46.08;;;31.80;81.40;;;;;;5033627;28;20580;-73
2022/10/22 12:48:23;;;;;;;51.95;49.38;;;30.70;81.90;;;;;;5015675;28;20179;-73
2022/10/22 12:50:55;;;;;;;42.70;40.55;;;30.70;82.50;;;;;;5033404;28;20217;-73